Time;durP1;ratioP1;P1;durP2;ratioP2;P2;SDS_P1;SDS_P2;PMS_P1;PMS_P2;Temp;Humidity;BMP_temperature;BMP_pressure;BME280_temperature;BME280_humidity;BME280_pressure;Samples;Min_cycle;Max_cycle;Signal;HPM_P1;HPM_P2
2020/12/18 00:00:57;;;;;;;78.03;33.28;;;3.80;79.00;;;;;;5098781;28;20024;-42
2020/12/18 00:03:24;;;;;;;80.07;32.80;;;3.80;79.00;;;;;;5098557;28;20020;-41
2020/12/18 00:05:51;;;;;;;71.78;30.23;;;3.80;79.10;;;;;;5098557;28;20055;-42
2020/12/18 00:08:17;;;;;;;65.20;28.50;;;3.80;79.10;;;;;;5097749;28;20016;-42
2020/12/18 00:10:42;;;;;;;61.28;28.02;;;3.80;79.10;;;;;;5098494;28;20028;-43
2020/12/18 00:13:08;;;;;;;62.28;27.83;;;3.90;79.00;;;;;;5098498;28;20311;-42
2020/12/18 00:15:34;;;;;;;67.20;29.08;;;3.90;79.00;;;;;;5098147;28;20024;-43
2020/12/18 00:18:00;;;;;;;75.55;32.13;;;3.90;79.00;;;;;;5098662;28;20061;-42
2020/12/18 08:43:20;;;;;;;41.25;25.58;;;4.10;77.80;;;;;;5094319;28;20059;-40
2020/12/18 08:45:46;;;;;;;31.42;20.30;;;4.20;77.50;;;;;;5096468;28;20061;-40
2020/12/18 08:48:17;;;;;;;22.15;14.07;;;4.20;77.30;;;;;;5097012;28;20300;-41
2020/12/18 08:50:42;;;;;;;33.65;21.40;;;4.20;76.40;;;;;;5097702;28;20036;-41
2020/12/18 08:53:14;;;;;;;57.67;33.30;;;4.20;76.40;;;;;;5097517;28;20030;-40
2020/12/18 08:55:40;;;;;;;52.60;31.95;;;4.20;76.30;;;;;;5095698;28;20036;-41
2020/12/18 08:58:10;;;;;;;44.95;28.40;;;4.20;76.30;;;;;;5097461;28;20160;-41
2020/12/18 09:00:37;;;;;;;54.10;29.77;;;4.20;76.20;;;;;;5102503;28;20024;-41
2020/12/18 09:03:03;;;;;;;46.58;28.05;;;4.20;76.30;;;;;;5096301;28;20368;-41
2020/12/18 09:05:34;;;;;;;51.08;30.00;;;4.20;76.50;;;;;;5097465;28;20040;-42
2020/12/18 09:08:02;;;;;;;53.05;28.10;;;4.30;76.60;;;;;;5096444;28;20027;-41
2020/12/18 09:10:54;;;;;;;64.30;38.00;;;4.20;76.80;;;;;;5096765;28;20028;-41
2020/12/18 09:13:28;;;;;;;59.65;33.25;;;4.30;76.90;;;;;;5096407;28;20128;-42
2020/12/18 09:16:04;;;;;;;64.30;34.15;;;4.40;76.80;;;;;;5097034;28;20032;-41
2020/12/18 09:18:37;;;;;;;61.25;33.28;;;4.40;76.40;;;;;;5094858;28;20081;-40
2020/12/18 09:21:17;;;;;;;37.28;22.92;;;4.40;76.30;;;;;;5096277;28;20345;-42
2020/12/18 09:23:46;;;;;;;41.92;23.15;;;4.40;75.70;;;;;;5090521;28;20030;-41
2020/12/18 09:26:21;;;;;;;30.02;18.00;;;4.40;75.80;;;;;;5095349;28;20072;-41
2020/12/18 09:28:47;;;;;;;32.67;17.48;;;4.40;75.60;;;;;;5095464;28;20111;-41
2020/12/18 09:31:13;;;;;;;32.50;19.00;;;4.30;75.10;;;;;;5096219;28;20122;-43
2020/12/18 09:33:39;;;;;;;35.83;20.75;;;4.30;75.00;;;;;;5095509;28;20020;-41
2020/12/18 09:36:07;;;;;;;36.92;22.15;;;4.30;75.10;;;;;;5095962;28;20036;-42
2020/12/18 09:38:53;;;;;;;38.88;19.63;;;4.30;74.80;;;;;;5096677;28;20024;-42
2020/12/18 09:41:20;;;;;;;40.10;20.52;;;4.20;74.80;;;;;;5094672;28;20028;-42
2020/12/18 09:43:47;;;;;;;44.85;20.48;;;4.20;74.90;;;;;;5095562;28;20036;-42
2020/12/18 09:46:13;;;;;;;37.00;18.92;;;4.20;75.20;;;;;;5095962;28;20403;-42
2020/12/18 09:48:44;;;;;;;37.65;20.55;;;4.10;75.20;;;;;;5075097;28;20025;-41
2020/12/18 09:51:09;;;;;;;30.02;18.65;;;4.10;75.30;;;;;;5091193;28;20024;-41
2020/12/18 09:53:35;;;;;;;31.95;19.50;;;4.10;75.30;;;;;;5093809;28;20031;-41
2020/12/18 09:56:01;;;;;;;31.33;19.73;;;4.10;75.20;;;;;;5073556;28;20120;-42
2020/12/18 09:58:27;;;;;;;29.45;17.85;;;4.10;75.00;;;;;;5074870;28;20095;-41
2020/12/18 10:00:53;;;;;;;31.27;21.45;;;4.00;75.00;;;;;;5080097;28;20031;-43
2020/12/18 10:03:19;;;;;;;28.52;17.60;;;4.00;74.90;;;;;;5095981;28;20135;-41
2020/12/18 10:05:46;;;;;;;30.90;19.23;;;4.00;74.70;;;;;;5096368;28;20122;-41
2020/12/18 10:08:12;;;;;;;31.38;19.98;;;3.90;74.60;;;;;;5096161;28;20031;-41
2020/12/18 10:10:38;;;;;;;31.10;20.10;;;3.90;74.60;;;;;;5073958;28;20354;-44
2020/12/18 10:13:03;;;;;;;29.63;18.38;;;3.80;74.90;;;;;;5072495;28;20129;-42
2020/12/18 10:15:29;;;;;;;35.47;22.45;;;3.80;75.10;;;;;;5056354;28;20486;-42
2020/12/18 10:17:55;;;;;;;43.92;23.35;;;3.80;75.30;;;;;;5053624;28;20082;-42
2020/12/18 10:20:21;;;;;;;34.88;22.70;;;3.80;75.50;;;;;;5055916;28;20315;-42
2020/12/18 10:22:46;;;;;;;44.67;24.13;;;3.80;75.60;;;;;;5064076;28;20397;-43
2020/12/18 10:25:12;;;;;;;35.13;23.90;;;3.80;75.70;;;;;;5074988;28;20036;-42
2020/12/18 10:27:38;;;;;;;30.42;19.63;;;3.80;75.90;;;;;;5075182;28;20119;-43
2020/12/18 10:30:06;;;;;;;32.58;20.83;;;3.90;75.90;;;;;;5074460;28;20111;-42
2020/12/18 10:32:32;;;;;;;31.27;19.83;;;3.90;75.70;;;;;;5073728;28;20134;-42
2020/12/18 10:34:58;;;;;;;32.42;20.58;;;3.90;75.50;;;;;;5074523;28;20123;-41
2020/12/18 10:37:26;;;;;;;29.60;18.85;;;3.90;75.50;;;;;;5074375;28;20123;-42
2020/12/18 10:39:52;;;;;;;31.10;19.10;;;3.90;75.40;;;;;;5074601;28;20402;-41
2020/12/18 10:42:18;;;;;;;31.73;18.83;;;3.90;75.20;;;;;;5084969;28;20031;-42
2020/12/18 10:44:44;;;;;;;32.65;20.80;;;3.90;75.10;;;;;;5092674;28;20047;-41
2020/12/18 10:47:09;;;;;;;31.67;19.55;;;3.80;75.00;;;;;;5089983;28;20033;-42
2020/12/18 10:49:36;;;;;;;29.55;17.95;;;3.90;75.10;;;;;;5086637;28;20323;-42
2020/12/18 10:52:01;;;;;;;28.88;18.75;;;3.80;75.10;;;;;;5098517;28;20441;-42
2020/12/18 10:54:28;;;;;;;33.00;18.52;;;3.80;75.20;;;;;;5098283;28;20031;-42
2020/12/18 10:56:55;;;;;;;30.42;19.00;;;3.80;75.30;;;;;;5097777;28;20020;-41
2020/12/18 10:59:22;;;;;;;30.27;20.35;;;3.80;75.40;;;;;;5096388;28;20115;-42
2020/12/18 11:01:52;;;;;;;31.38;19.30;;;3.80;75.60;;;;;;5096849;28;20032;-41
2020/12/18 11:04:18;;;;;;;32.47;18.58;;;3.80;75.70;;;;;;5090987;28;20043;-41
2020/12/18 11:06:44;;;;;;;35.08;22.27;;;3.80;75.50;;;;;;5097396;28;20028;-41
2020/12/18 11:09:10;;;;;;;31.10;18.75;;;3.80;75.50;;;;;;5094820;28;20035;-42
2020/12/18 11:11:35;;;;;;;32.75;20.17;;;3.80;75.50;;;;;;5077312;28;20020;-42
2020/12/18 11:14:01;;;;;;;40.95;22.00;;;3.80;75.60;;;;;;5093425;28;20032;-41
2020/12/18 11:16:27;;;;;;;32.40;20.52;;;3.80;75.70;;;;;;5098300;28;20030;-42
2020/12/18 11:18:53;;;;;;;31.75;19.08;;;3.80;75.80;;;;;;5099965;28;20098;-42
2020/12/18 11:21:19;;;;;;;31.30;19.10;;;3.80;75.50;;;;;;5096404;28;20039;-42
2020/12/18 11:23:45;;;;;;;33.83;19.02;;;3.90;75.70;;;;;;5096539;28;20465;-42
2020/12/18 11:26:11;;;;;;;30.77;18.83;;;3.90;75.60;;;;;;5096706;28;20036;-41
2020/12/18 11:28:38;;;;;;;30.33;18.63;;;3.90;75.60;;;;;;5090684;28;20060;-42
2020/12/18 11:31:04;;;;;;;30.85;18.80;;;3.90;75.50;;;;;;5091898;28;20036;-42
2020/12/18 11:33:30;;;;;;;30.73;18.85;;;3.90;75.30;;;;;;5098021;28;20032;-42
2020/12/18 11:35:56;;;;;;;30.15;18.92;;;3.90;75.30;;;;;;5097410;28;20028;-42
2020/12/18 11:38:22;;;;;;;33.90;19.17;;;3.90;75.50;;;;;;5097979;28;20032;-42
2020/12/18 11:40:48;;;;;;;32.75;19.90;;;3.90;75.40;;;;;;5096650;28;20023;-42
2020/12/18 11:43:14;;;;;;;38.10;21.30;;;3.90;75.20;;;;;;5095637;28;20381;-42
2020/12/18 11:45:40;;;;;;;31.45;18.45;;;3.90;75.30;;;;;;5096002;28;20088;-42
2020/12/18 11:48:06;;;;;;;31.45;17.65;;;3.90;74.90;;;;;;5094335;28;20515;-42
2020/12/18 11:50:32;;;;;;;32.58;18.70;;;3.80;74.90;;;;;;5091978;28;20032;-41
2020/12/18 11:52:58;;;;;;;32.97;19.67;;;3.80;74.90;;;;;;5090434;28;20027;-42
2020/12/18 11:55:25;;;;;;;29.92;19.20;;;3.80;75.20;;;;;;5095796;28;20538;-41
2020/12/18 11:57:51;;;;;;;31.92;19.70;;;3.80;75.20;;;;;;5097247;28;20417;-42
2020/12/18 12:00:20;;;;;;;29.00;17.65;;;3.80;75.30;;;;;;5097155;28;20572;-41
2020/12/18 12:02:50;;;;;;;34.45;20.70;;;3.80;75.40;;;;;;5096173;28;20020;-41
2020/12/18 12:05:17;;;;;;;35.75;21.42;;;3.80;75.50;;;;;;5095416;28;20040;-41
2020/12/18 12:07:43;;;;;;;47.67;20.95;;;3.90;75.30;;;;;;5095569;28;20330;-40
2020/12/18 12:10:10;;;;;;;37.45;21.40;;;3.90;74.90;;;;;;5096859;28;20031;-40
2020/12/18 12:12:36;;;;;;;38.30;21.75;;;3.80;74.90;;;;;;5096897;28;20028;-41
2020/12/18 12:15:06;;;;;;;36.10;21.60;;;3.70;74.70;;;;;;5103203;28;20024;-41
2020/12/18 12:17:32;;;;;;;31.75;19.98;;;3.70;74.80;;;;;;5097191;28;20126;-41
2020/12/18 12:19:58;;;;;;;30.17;19.00;;;3.70;74.80;;;;;;5095807;28;20115;-40
2020/12/18 12:22:24;;;;;;;32.40;20.98;;;3.60;74.90;;;;;;5097368;28;20119;-42
2020/12/18 12:24:51;;;;;;;32.42;21.73;;;3.60;75.20;;;;;;5097158;28;20035;-41
2020/12/18 12:27:20;;;;;;;33.72;22.75;;;3.70;75.60;;;;;;5096638;28;20089;-41
2020/12/18 12:29:46;;;;;;;33.40;21.95;;;3.70;75.50;;;;;;5097575;28;20027;-41
2020/12/18 12:32:11;;;;;;;34.75;23.25;;;3.70;75.40;;;;;;5096783;28;20035;-43
2020/12/18 12:34:37;;;;;;;32.15;21.67;;;3.70;75.50;;;;;;5097277;28;20020;-42
2020/12/18 12:37:03;;;;;;;32.17;21.13;;;3.70;75.80;;;;;;5098364;28;20024;-41
2020/12/18 12:39:28;;;;;;;36.40;23.30;;;3.80;75.90;;;;;;5097120;28;20074;-42
2020/12/18 12:41:54;;;;;;;29.52;18.85;;;3.80;75.80;;;;;;5096755;28;20030;-40
2020/12/18 12:44:20;;;;;;;46.97;30.45;;;3.80;75.90;;;;;;5095307;28;20360;-40
2020/12/18 12:46:46;;;;;;;34.15;18.48;;;3.80;76.00;;;;;;5095446;28;20032;-41
2020/12/18 12:49:11;;;;;;;39.72;25.02;;;3.90;75.90;;;;;;5096152;28;20032;-43
2020/12/18 12:51:37;;;;;;;32.17;18.92;;;3.90;75.50;;;;;;5095713;28;20394;-40
2020/12/18 12:54:03;;;;;;;33.30;21.13;;;3.90;75.20;;;;;;5096030;28;20089;-42
2020/12/18 12:56:29;;;;;;;29.92;18.30;;;4.00;75.20;;;;;;5096653;28;20052;-41
2020/12/18 12:58:55;;;;;;;31.30;18.10;;;4.00;75.10;;;;;;5092036;28;20076;-42
2020/12/18 13:01:20;;;;;;;35.20;19.80;;;4.00;75.00;;;;;;5094644;28;20020;-41
2020/12/18 13:03:46;;;;;;;32.65;19.02;;;4.00;75.00;;;;;;5096956;28;20024;-43
2020/12/18 13:06:19;;;;;;;31.17;19.42;;;4.00;75.10;;;;;;5095451;28;20039;-41
2020/12/18 13:08:44;;;;;;;34.55;20.05;;;4.00;75.10;;;;;;5095627;28;20110;-41
2020/12/18 13:11:10;;;;;;;32.97;20.92;;;4.00;75.00;;;;;;5081586;28;20132;-41
2020/12/18 13:13:35;;;;;;;32.72;19.27;;;4.00;74.90;;;;;;5094095;28;20028;-43
2020/12/18 13:16:01;;;;;;;39.88;23.77;;;4.00;74.90;;;;;;5092995;28;20031;-42
2020/12/18 13:18:27;;;;;;;34.00;21.08;;;4.00;74.90;;;;;;5093774;28;20109;-42
2020/12/18 13:20:53;;;;;;;33.85;20.00;;;4.00;74.60;;;;;;5093787;28;20023;-42
2020/12/18 13:23:18;;;;;;;34.63;20.23;;;3.90;74.40;;;;;;5093757;28;20039;-42
2020/12/18 13:25:44;;;;;;;45.03;26.90;;;3.90;74.40;;;;;;5094021;28;20503;-42
2020/12/18 13:28:10;;;;;;;35.33;21.88;;;3.90;74.30;;;;;;5092782;28;20154;-42
2020/12/18 13:30:39;;;;;;;31.10;19.40;;;3.90;74.50;;;;;;5094305;28;20443;-42
2020/12/18 13:33:05;;;;;;;34.58;22.80;;;3.90;74.70;;;;;;5095265;28;20620;-42
2020/12/18 13:35:31;;;;;;;46.13;29.42;;;3.80;74.80;;;;;;5085510;28;20028;-41
2020/12/18 13:37:57;;;;;;;46.58;29.35;;;3.80;74.80;;;;;;5082283;28;20424;-42
2020/12/18 13:40:23;;;;;;;44.28;28.52;;;3.80;74.80;;;;;;5095272;28;20114;-42
2020/12/18 13:42:48;;;;;;;44.78;30.33;;;3.80;74.90;;;;;;5093854;28;20356;-42
2020/12/18 13:45:14;;;;;;;43.47;27.45;;;3.80;74.90;;;;;;5094484;28;20055;-41
2020/12/18 13:47:42;;;;;;;54.03;33.25;;;3.70;74.90;;;;;;5093603;28;20028;-42
2020/12/18 13:50:09;;;;;;;40.97;24.80;;;3.70;74.80;;;;;;5093136;28;20020;-42
2020/12/18 13:52:35;;;;;;;39.78;26.52;;;3.70;74.80;;;;;;5073489;28;20032;-42
2020/12/18 13:55:02;;;;;;;46.78;29.60;;;3.70;74.90;;;;;;5083015;28;20029;-42
2020/12/18 13:57:28;;;;;;;48.88;28.65;;;3.60;75.10;;;;;;5077137;28;20028;-42
2020/12/18 13:59:56;;;;;;;55.55;32.78;;;3.60;75.30;;;;;;5093597;28;20482;-42
2020/12/18 14:02:22;;;;;;;55.38;30.85;;;3.60;75.30;;;;;;5087192;28;20043;-42
2020/12/18 14:04:48;;;;;;;49.30;28.30;;;3.60;75.50;;;;;;5082267;28;20095;-42
2020/12/18 14:07:14;;;;;;;41.35;24.55;;;3.60;75.50;;;;;;5084458;28;20068;-42
2020/12/18 14:09:40;;;;;;;41.30;25.23;;;3.60;75.40;;;;;;5075549;28;20032;-42
2020/12/18 14:12:06;;;;;;;42.70;24.83;;;3.60;75.40;;;;;;5092692;28;20027;-42
2020/12/18 14:14:32;;;;;;;45.40;24.80;;;3.60;75.50;;;;;;5077119;28;20118;-43
2020/12/18 14:16:57;;;;;;;50.90;28.13;;;3.60;75.60;;;;;;5075845;28;20078;-42
2020/12/18 14:19:23;;;;;;;47.88;27.80;;;3.60;75.50;;;;;;5082258;28;20028;-42
2020/12/18 14:21:52;;;;;;;50.03;27.38;;;3.60;75.40;;;;;;5088554;28;20345;-42
2020/12/18 14:24:19;;;;;;;47.80;26.90;;;3.60;75.30;;;;;;5088593;28;20032;-42
2020/12/18 14:26:48;;;;;;;41.47;23.63;;;3.60;75.60;;;;;;5075074;28;20405;-41
2020/12/18 14:29:14;;;;;;;49.53;27.58;;;3.60;75.50;;;;;;5074768;28;20210;-41
2020/12/18 14:31:40;;;;;;;55.92;26.40;;;3.60;75.40;;;;;;5074675;28;20024;-42
2020/12/18 14:34:06;;;;;;;52.22;25.90;;;3.50;75.30;;;;;;5075913;28;20031;-42
2020/12/18 14:36:32;;;;;;;49.88;26.52;;;3.50;75.50;;;;;;5075239;28;20029;-41
2020/12/18 14:38:57;;;;;;;54.25;26.65;;;3.50;75.70;;;;;;5075403;28;20028;-41
2020/12/18 14:41:23;;;;;;;52.28;28.52;;;3.50;75.70;;;;;;5075604;28;20032;-41
2020/12/18 14:43:49;;;;;;;63.25;30.38;;;3.50;75.60;;;;;;5074759;28;20084;-41
2020/12/18 14:46:15;;;;;;;63.78;27.80;;;3.50;75.70;;;;;;5075143;28;20048;-41
2020/12/18 14:48:41;;;;;;;52.35;25.70;;;3.50;75.60;;;;;;5074640;28;20083;-41
2020/12/18 14:51:09;;;;;;;54.60;26.00;;;3.40;75.50;;;;;;5072950;28;20056;-41
2020/12/18 14:53:35;;;;;;;52.15;24.95;;;3.40;75.40;;;;;;5074114;28;20127;-41
2020/12/18 14:56:01;;;;;;;65.30;28.17;;;3.40;75.50;;;;;;5074219;28;20035;-41
2020/12/18 14:58:26;;;;;;;59.33;27.50;;;3.30;75.50;;;;;;5074683;28;20029;-41
2020/12/18 15:00:52;;;;;;;73.85;28.73;;;3.30;75.70;;;;;;5075534;28;20113;-41
2020/12/18 15:03:18;;;;;;;55.08;25.05;;;3.30;75.80;;;;;;5075467;28;20036;-42
2020/12/18 15:05:44;;;;;;;61.38;28.45;;;3.20;75.90;;;;;;5074820;28;20427;-41
2020/12/18 15:08:09;;;;;;;68.07;30.90;;;3.20;76.10;;;;;;5074830;28;20105;-42
2020/12/18 15:10:35;;;;;;;66.82;29.30;;;3.20;76.20;;;;;;5075178;28;20013;-41
2020/12/18 15:13:01;;;;;;;68.85;29.55;;;3.20;76.20;;;;;;5074356;28;20032;-42
2020/12/18 15:15:26;;;;;;;67.15;28.42;;;3.10;76.30;;;;;;5075457;28;20032;-41
2020/12/18 15:17:53;;;;;;;71.35;29.17;;;3.10;76.40;;;;;;5074538;28;20422;-42
2020/12/18 15:20:19;;;;;;;67.05;29.70;;;3.10;76.70;;;;;;5074772;28;20107;-41
2020/12/18 15:22:45;;;;;;;68.18;31.25;;;3.10;76.80;;;;;;5074889;28;20382;-42
2020/12/18 15:25:11;;;;;;;74.18;30.70;;;3.10;77.00;;;;;;5075489;28;20099;-42
2020/12/18 15:27:36;;;;;;;56.97;28.10;;;3.10;77.00;;;;;;5085123;28;20321;-42
2020/12/18 15:30:03;;;;;;;66.32;28.08;;;3.10;77.00;;;;;;5092771;28;20103;-42
2020/12/18 15:32:29;;;;;;;69.85;30.27;;;3.10;77.20;;;;;;5073967;28;20029;-41
2020/12/18 15:34:54;;;;;;;66.93;30.63;;;3.10;77.30;;;;;;5091931;28;20024;-41
2020/12/18 15:37:21;;;;;;;69.30;32.10;;;3.10;77.40;;;;;;5084426;28;20067;-42
2020/12/18 15:39:47;;;;;;;68.85;30.23;;;3.10;77.90;;;;;;5075450;28;20444;-41
2020/12/18 15:42:17;;;;;;;71.85;30.45;;;3.20;77.40;;;;;;5076971;28;20077;-42
2020/12/18 15:44:43;;;;;;;69.72;30.70;;;3.20;77.40;;;;;;5097719;28;20298;-42
2020/12/18 15:47:10;;;;;;;63.03;29.45;;;3.20;77.40;;;;;;5097253;28;20107;-42
2020/12/18 15:49:35;;;;;;;58.30;26.83;;;3.20;77.30;;;;;;5083434;28;20333;-42
2020/12/18 15:52:01;;;;;;;66.65;31.52;;;3.20;77.20;;;;;;5078213;28;20025;-43
2020/12/18 15:54:27;;;;;;;61.47;28.60;;;3.20;77.20;;;;;;5078091;28;20032;-42
2020/12/18 15:56:52;;;;;;;61.20;26.80;;;3.20;77.20;;;;;;5077600;28;20490;-41
2020/12/18 15:59:18;;;;;;;63.88;29.60;;;3.20;77.20;;;;;;5086851;28;20314;-43
2020/12/18 16:01:45;;;;;;;58.30;26.88;;;3.20;77.30;;;;;;5095161;28;20031;-41
2020/12/18 16:04:10;;;;;;;55.22;27.40;;;3.20;77.60;;;;;;5096721;28;20024;-41
2020/12/18 16:06:36;;;;;;;58.38;27.13;;;3.20;77.80;;;;;;5096663;28;20035;-41
2020/12/18 16:09:03;;;;;;;61.30;28.42;;;3.20;77.70;;;;;;5096639;28;20099;-42
2020/12/18 16:11:29;;;;;;;58.35;28.70;;;3.20;77.60;;;;;;5097448;28;20544;-42
2020/12/18 16:13:55;;;;;;;65.35;30.27;;;3.20;77.40;;;;;;5096505;28;20020;-42
2020/12/18 16:16:21;;;;;;;68.38;30.60;;;3.20;77.30;;;;;;5096333;28;20662;-42
2020/12/18 16:18:47;;;;;;;61.22;27.90;;;3.20;77.90;;;;;;5097749;28;20028;-42
2020/12/18 16:21:12;;;;;;;71.93;31.38;;;3.10;77.30;;;;;;5096336;28;20032;-41
2020/12/18 16:23:38;;;;;;;61.65;30.20;;;3.10;77.40;;;;;;5096207;28;20425;-43
2020/12/18 16:26:07;;;;;;;65.45;29.10;;;3.10;77.50;;;;;;5095692;28;20127;-41
2020/12/18 16:28:38;;;;;;;65.80;30.63;;;3.10;77.50;;;;;;5096459;28;20034;-41
2020/12/18 16:31:04;;;;;;;;;;;3.00;77.80;;;;;;5096274;28;20367;-42
2020/12/18 16:33:30;;;;;;;64.75;28.23;;;3.00;77.40;;;;;;5095962;28;19970;-42
2020/12/18 16:35:56;;;;;;;60.90;26.35;;;3.00;77.60;;;;;;5097269;28;20059;-41
2020/12/18 16:38:22;;;;;;;64.22;29.17;;;3.00;77.80;;;;;;5097866;28;20063;-42
2020/12/18 16:40:52;;;;;;;60.90;28.08;;;3.00;78.10;;;;;;5097650;28;20073;-41
2020/12/18 16:43:25;;;;;;;63.15;29.30;;;3.00;78.30;;;;;;5097107;28;20048;-41
2020/12/18 16:45:51;;;;;;;63.22;29.83;;;3.00;78.40;;;;;;5097723;28;20068;-41
2020/12/18 16:48:16;;;;;;;65.25;31.40;;;3.00;78.30;;;;;;5097118;28;20063;-42
2020/12/18 16:50:45;;;;;;;63.95;30.20;;;3.00;78.40;;;;;;5096392;28;20032;-41
2020/12/18 16:53:11;;;;;;;75.60;34.35;;;3.00;78.20;;;;;;5097069;28;20024;-41
2020/12/18 16:55:37;;;;;;;64.68;28.55;;;3.00;78.20;;;;;;5097249;28;20320;-41
2020/12/18 16:58:03;;;;;;;70.68;33.22;;;3.00;78.20;;;;;;5096957;28;20021;-42
2020/12/18 17:00:29;;;;;;;58.22;29.48;;;3.00;78.20;;;;;;5097720;28;20416;-41
2020/12/18 17:02:55;;;;;;;62.47;30.65;;;3.00;78.30;;;;;;5096961;28;20032;-41
2020/12/18 17:05:21;;;;;;;75.38;36.00;;;3.00;78.40;;;;;;5096872;28;20497;-41
2020/12/18 17:07:46;;;;;;;66.10;33.38;;;3.00;78.50;;;;;;5096741;28;20028;-42
2020/12/18 17:10:14;;;;;;;60.58;29.88;;;3.00;78.60;;;;;;5097019;28;20076;-41
2020/12/18 17:12:39;;;;;;;56.80;27.77;;;3.00;78.60;;;;;;5095444;28;20504;-41
2020/12/18 17:15:06;;;;;;;63.25;28.55;;;3.00;78.60;;;;;;5095843;28;20145;-41
2020/12/18 17:17:33;;;;;;;58.60;27.15;;;2.90;78.40;;;;;;5097159;28;20031;-41
2020/12/18 17:19:58;;;;;;;56.25;28.42;;;2.90;78.50;;;;;;5078472;28;20444;-41
2020/12/18 17:22:25;;;;;;;60.60;29.08;;;2.90;78.50;;;;;;5096477;28;20055;-41
2020/12/18 17:24:51;;;;;;;56.83;26.85;;;2.90;78.50;;;;;;5096900;28;20031;-42
2020/12/18 17:27:22;;;;;;;56.45;26.85;;;2.90;78.60;;;;;;5096795;28;20051;-42
2020/12/18 17:29:52;;;;;;;55.80;26.90;;;2.90;78.70;;;;;;5078284;28;20027;-41
2020/12/18 17:32:18;;;;;;;60.73;30.00;;;2.90;78.90;;;;;;5078401;28;20028;-41
2020/12/18 17:34:45;;;;;;;53.05;26.45;;;2.90;78.80;;;;;;5096437;28;20264;-41
2020/12/18 17:37:12;;;;;;;69.57;31.02;;;2.90;78.90;;;;;;5096532;28;20467;-41
2020/12/18 17:39:38;;;;;;;68.28;33.17;;;2.90;78.90;;;;;;5078351;28;20359;-41
2020/12/18 17:42:04;;;;;;;76.03;34.08;;;2.90;78.90;;;;;;5097480;28;20027;-41
2020/12/18 17:44:30;;;;;;;76.50;33.28;;;2.90;78.80;;;;;;5096431;28;20364;-41
2020/12/18 17:46:56;;;;;;;81.00;37.22;;;2.80;78.70;;;;;;5078494;28;20067;-42
2020/12/18 17:49:22;;;;;;;95.40;46.03;;;2.80;78.70;;;;;;5095407;28;20082;-41
2020/12/18 17:51:58;;;;;;;84.25;38.53;;;2.80;78.80;;;;;;5077677;28;20032;-41
2020/12/18 17:54:23;;;;;;;80.40;37.45;;;2.80;79.00;;;;;;5095574;28;20494;-40
2020/12/18 17:56:49;;;;;;;86.85;38.28;;;2.80;79.00;;;;;;5096275;28;20024;-40
2020/12/18 17:59:15;;;;;;;81.85;38.63;;;2.80;79.10;;;;;;5095363;28;20034;-41
2020/12/18 18:01:41;;;;;;;68.13;33.35;;;2.80;79.10;;;;;;5095081;28;20024;-40
2020/12/18 18:04:06;;;;;;;62.72;30.52;;;2.80;79.00;;;;;;5095545;28;20102;-41
2020/12/18 18:06:32;;;;;;;60.47;29.13;;;2.80;79.20;;;;;;5096629;28;20035;-40
2020/12/18 18:08:58;;;;;;;57.70;27.80;;;2.80;79.30;;;;;;5096050;28;20102;-41
2020/12/18 18:11:25;;;;;;;65.45;33.88;;;2.80;79.40;;;;;;5095360;28;20067;-41
2020/12/18 18:13:51;;;;;;;57.88;31.63;;;2.80;79.30;;;;;;5096147;28;20055;-41
2020/12/18 18:16:18;;;;;;;55.00;28.63;;;2.80;79.30;;;;;;5096338;28;20020;-41
2020/12/18 18:18:43;;;;;;;49.72;25.85;;;2.80;79.50;;;;;;5095852;28;20345;-42
2020/12/18 18:21:09;;;;;;;53.17;27.48;;;2.80;79.50;;;;;;5095421;28;20023;-42
2020/12/18 18:23:35;;;;;;;47.33;24.70;;;2.70;79.40;;;;;;5095710;28;20031;-43
2020/12/18 18:26:00;;;;;;;57.38;26.73;;;2.80;79.50;;;;;;5095821;28;20036;-42
2020/12/18 18:28:26;;;;;;;66.45;29.10;;;2.80;79.60;;;;;;5095772;28;20024;-42
2020/12/18 18:30:52;;;;;;;56.05;26.95;;;2.80;79.50;;;;;;5095850;28;20325;-42
2020/12/18 18:33:18;;;;;;;52.35;24.25;;;2.80;79.60;;;;;;5076960;28;20036;-42
2020/12/18 18:35:44;;;;;;;52.95;24.58;;;2.70;79.50;;;;;;5096344;28;20028;-41
2020/12/18 18:38:11;;;;;;;51.92;26.75;;;2.80;79.60;;;;;;5077412;28;20058;-41
2020/12/18 18:40:40;;;;;;;55.50;29.10;;;2.80;79.60;;;;;;5077690;28;20059;-42
2020/12/18 18:43:09;;;;;;;50.50;27.42;;;2.70;79.60;;;;;;5077472;28;20135;-42
2020/12/18 18:45:35;;;;;;;51.83;26.67;;;2.80;79.80;;;;;;5077874;28;20047;-42
2020/12/18 18:48:03;;;;;;;51.63;24.92;;;2.80;79.80;;;;;;5097360;28;20437;-42
2020/12/18 18:50:29;;;;;;;50.33;24.35;;;2.80;79.90;;;;;;5116009;28;20111;-42
2020/12/18 18:52:56;;;;;;;49.05;22.10;;;2.80;79.70;;;;;;5115828;28;20107;-42
2020/12/18 18:55:25;;;;;;;50.08;24.15;;;2.80;79.80;;;;;;5115262;28;20028;-41
2020/12/18 18:57:54;;;;;;;53.85;24.65;;;2.80;79.80;;;;;;5116458;28;20077;-43
2020/12/18 19:00:20;;;;;;;50.60;24.67;;;2.70;79.70;;;;;;5097957;28;20024;-42
2020/12/18 19:02:45;;;;;;;48.75;25.45;;;2.70;79.80;;;;;;5115703;28;20030;-43
2020/12/18 19:05:11;;;;;;;54.28;26.25;;;2.70;79.80;;;;;;5115247;28;20036;-42
2020/12/18 19:07:37;;;;;;;44.50;22.98;;;2.70;79.80;;;;;;5115669;28;20024;-43
2020/12/18 19:10:06;;;;;;;46.78;23.42;;;2.70;79.90;;;;;;5114826;28;20076;-42
2020/12/18 19:12:32;;;;;;;52.55;25.02;;;2.70;80.00;;;;;;5115769;28;20023;-41
2020/12/18 19:14:57;;;;;;;49.53;25.05;;;2.70;80.10;;;;;;5119938;28;20024;-41
2020/12/18 19:17:23;;;;;;;51.33;24.40;;;2.70;80.10;;;;;;5119334;28;20024;-42
2020/12/18 19:19:49;;;;;;;51.50;25.25;;;2.70;80.10;;;;;;5119680;28;20358;-41
2020/12/18 19:22:15;;;;;;;57.15;27.00;;;2.70;80.20;;;;;;5119686;28;20023;-42
2020/12/18 19:24:41;;;;;;;53.00;24.25;;;2.70;80.20;;;;;;5118878;28;20118;-41
2020/12/18 19:27:12;;;;;;;51.72;24.67;;;2.70;80.20;;;;;;5119476;28;20070;-42
2020/12/18 19:29:39;;;;;;;55.03;25.60;;;2.60;80.10;;;;;;5119287;28;20102;-42
2020/12/18 19:32:09;;;;;;;50.30;24.52;;;2.60;80.30;;;;;;5119084;28;20120;-42
2020/12/18 19:34:36;;;;;;;48.13;23.98;;;2.60;80.50;;;;;;5119229;28;20050;-42
2020/12/18 19:37:03;;;;;;;52.00;25.00;;;2.60;80.60;;;;;;5106252;28;20035;-40
2020/12/18 19:39:29;;;;;;;50.05;23.42;;;2.60;80.70;;;;;;5110076;28;20035;-41
2020/12/18 19:41:55;;;;;;;50.83;23.60;;;2.60;80.60;;;;;;5099558;28;20306;-40
2020/12/18 19:44:21;;;;;;;54.55;24.52;;;2.70;80.60;;;;;;5099258;28;20063;-41
2020/12/18 19:46:47;;;;;;;52.28;25.95;;;2.60;80.60;;;;;;5098466;28;20389;-40
2020/12/18 19:49:13;;;;;;;48.58;23.83;;;2.70;80.90;;;;;;5099760;28;20059;-41
2020/12/18 19:51:39;;;;;;;54.38;26.33;;;2.70;80.80;;;;;;5099869;28;20028;-41
2020/12/18 19:54:05;;;;;;;52.47;24.85;;;2.70;80.90;;;;;;5099110;28;20032;-42
2020/12/18 19:56:36;;;;;;;49.28;24.50;;;2.70;80.90;;;;;;5100362;28;20028;-42
2020/12/18 19:59:04;;;;;;;53.65;26.17;;;2.70;80.80;;;;;;5098963;28;20078;-41
2020/12/18 20:01:31;;;;;;;48.83;23.23;;;2.70;81.00;;;;;;5089124;28;20024;-40
2020/12/18 20:03:57;;;;;;;61.15;28.17;;;2.70;80.90;;;;;;5113398;28;20070;-41
2020/12/18 20:06:23;;;;;;;55.10;26.90;;;2.70;80.80;;;;;;5099529;28;20098;-42
2020/12/18 20:08:49;;;;;;;63.50;29.25;;;2.70;80.70;;;;;;5098214;28;20425;-43
2020/12/18 20:11:23;;;;;;;62.20;28.13;;;2.70;80.70;;;;;;5098612;28;20051;-41
2020/12/18 20:13:49;;;;;;;58.45;27.67;;;2.70;80.80;;;;;;5098992;28;20118;-42
2020/12/18 20:16:16;;;;;;;56.97;26.55;;;2.70;80.80;;;;;;5098575;28;20032;-41
2020/12/18 20:18:43;;;;;;;55.53;25.00;;;2.70;80.90;;;;;;5099151;28;20028;-41
2020/12/18 20:21:25;;;;;;;55.35;26.50;;;2.70;81.00;;;;;;5098052;28;20421;-42
2020/12/18 20:23:52;;;;;;;59.60;26.70;;;2.70;81.10;;;;;;5080839;28;20063;-40
2020/12/18 20:26:19;;;;;;;60.20;27.55;;;2.70;81.00;;;;;;5097689;28;20306;-40
2020/12/18 20:28:45;;;;;;;64.07;30.08;;;2.70;81.10;;;;;;5114513;28;20028;-41
2020/12/18 20:31:12;;;;;;;59.85;28.25;;;2.70;81.20;;;;;;5118009;28;20368;-41
2020/12/18 20:33:38;;;;;;;61.65;28.73;;;2.70;81.30;;;;;;5118295;28;20026;-42
2020/12/18 20:36:09;;;;;;;59.53;28.17;;;2.70;81.20;;;;;;5118031;28;20031;-42
2020/12/18 20:38:39;;;;;;;58.47;26.33;;;2.70;81.20;;;;;;5117931;28;20032;-42
2020/12/18 20:41:05;;;;;;;73.03;31.65;;;2.70;81.20;;;;;;5118618;28;20035;-41
2020/12/18 20:43:32;;;;;;;72.25;30.45;;;2.70;81.30;;;;;;5117686;28;20507;-41
2020/12/18 20:45:58;;;;;;;67.93;29.83;;;2.70;81.30;;;;;;5117400;28;20051;-41
2020/12/18 20:48:25;;;;;;;73.07;31.35;;;2.70;81.20;;;;;;5117982;28;20027;-42
2020/12/18 20:50:50;;;;;;;65.85;29.27;;;2.70;81.30;;;;;;5118397;28;20088;-41
2020/12/18 20:53:17;;;;;;;69.90;30.63;;;2.70;81.30;;;;;;5117423;28;20031;-43
2020/12/18 20:55:43;;;;;;;72.20;31.67;;;2.70;81.30;;;;;;5118285;28;20118;-42
2020/12/18 20:58:09;;;;;;;75.45;32.58;;;2.70;81.40;;;;;;5117623;28;20119;-42